createdAt,value
2019-01-29T00:00:41.390Z,13.65
2019-01-29T00:02:44.099Z,16.12
2019-01-29T00:04:45.618Z,12.13
2019-01-29T00:06:47.134Z,10.03
2019-01-29T00:08:48.497Z,9.48
2019-01-29T00:10:49.866Z,10.20
2019-01-29T00:12:51.303Z,9.68
2019-01-29T00:14:52.664Z,7.72
2019-01-29T00:16:54.020Z,7.10
2019-01-29T00:18:55.462Z,7.85
2019-01-29T00:20:56.842Z,7.22
2019-01-29T00:22:58.235Z,9.30
2019-01-29T00:24:59.867Z,5.83
2019-01-29T00:27:01.323Z,6.55
2019-01-29T00:29:03.016Z,7.37
2019-01-29T00:31:05.100Z,7.20
2019-01-29T00:33:06.477Z,9.08
2019-01-29T00:35:08.171Z,6.87
2019-01-29T00:37:09.611Z,9.08
2019-01-29T00:39:11.214Z,12.80
2019-01-29T00:41:14.506Z,9.20
2019-01-29T00:43:15.970Z,9.08
2019-01-29T00:45:17.563Z,13.53
2019-01-29T00:47:18.943Z,13.60
2019-01-29T00:49:20.382Z,14.85
2019-01-29T00:51:21.764Z,12.60
2019-01-29T00:53:23.180Z,19.45
2019-01-29T00:55:24.603Z,20.20
2019-01-29T00:57:25.978Z,16.45
2019-01-29T00:59:27.576Z,17.65
2019-01-29T01:01:28.960Z,16.70
2019-01-29T01:03:30.557Z,21.70
2019-01-29T01:05:31.972Z,20.25
2019-01-29T01:07:33.681Z,16.80
2019-01-29T01:09:35.085Z,17.75
2019-01-29T01:11:36.479Z,16.48
2019-01-29T01:13:37.915Z,18.25
2019-01-29T01:15:39.402Z,17.95
2019-01-29T01:17:40.887Z,19.73
2019-01-29T01:19:42.299Z,16.97
2019-01-29T01:21:43.669Z,15.60
2019-01-29T01:23:45.057Z,15.65
2019-01-29T01:25:46.479Z,20.30
2019-01-29T01:27:47.926Z,16.70
2019-01-29T01:29:49.319Z,20.55
2019-01-29T01:31:50.730Z,17.17
2019-01-29T01:33:52.141Z,18.82
2019-01-29T01:35:53.603Z,15.53
2019-01-29T01:37:55.084Z,14.18
2019-01-29T01:39:56.499Z,14.28
2019-01-29T01:41:57.990Z,15.13
2019-01-29T01:43:59.376Z,13.43
2019-01-29T01:46:00.756Z,14.93
2019-01-29T01:48:02.145Z,14.73
2019-01-29T01:50:06.566Z,17.77
2019-01-29T01:52:07.933Z,19.50
2019-01-29T01:54:09.597Z,15.93
2019-01-29T01:56:10.973Z,14.55
2019-01-29T01:58:12.467Z,21.80
2019-01-29T02:00:16.852Z,17.35
2019-01-29T02:02:18.255Z,15.83
2019-01-29T02:04:19.613Z,16.97
2019-01-29T02:06:21.028Z,20.90
2019-01-29T02:08:22.409Z,20.97
2019-01-29T02:10:27.621Z,18.62
2019-01-29T02:12:28.997Z,20.88
2019-01-29T02:14:30.368Z,20.17
2019-01-29T02:16:31.811Z,21.50
2019-01-29T02:18:33.185Z,22.95
2019-01-29T02:20:34.544Z,18.67
2019-01-29T02:22:35.957Z,18.65
2019-01-29T02:24:37.331Z,18.02
2019-01-29T02:26:38.706Z,17.85
2019-01-29T02:28:40.109Z,18.85
2019-01-29T02:30:41.525Z,15.03
2019-01-29T02:32:44.785Z,17.82
2019-01-29T02:34:46.172Z,14.98
2019-01-29T02:36:47.659Z,15.75
2019-01-29T02:38:49.041Z,16.20
2019-01-29T02:40:50.443Z,17.98
2019-01-29T02:42:52.162Z,13.20
2019-01-29T02:44:53.521Z,16.90
2019-01-29T02:46:54.900Z,17.57
2019-01-29T02:48:56.308Z,18.55
2019-01-29T02:50:57.725Z,16.17
2019-01-29T02:52:59.149Z,14.80
2019-01-29T02:55:00.647Z,16.20
2019-01-29T02:57:02.044Z,11.83
2019-01-29T02:59:03.687Z,18.30
2019-01-29T03:01:05.077Z,16.70
2019-01-29T03:03:06.477Z,14.18
2019-01-29T03:05:10.893Z,15.32
2019-01-29T03:07:12.289Z,15.08
2019-01-29T03:09:13.793Z,13.65
2019-01-29T03:11:15.181Z,17.92
2019-01-29T03:13:16.772Z,15.25
2019-01-29T03:15:27.954Z,14.38
2019-01-29T03:17:29.274Z,11.38
2019-01-29T03:19:30.754Z,15.50
2019-01-29T03:21:32.129Z,17.12
2019-01-29T03:23:33.626Z,15.15
2019-01-29T03:25:35.276Z,19.48
2019-01-29T03:27:36.859Z,20.37
2019-01-29T03:29:38.224Z,16.17
2019-01-29T03:31:39.647Z,19.42
2019-01-29T03:33:41.439Z,15.08
2019-01-29T03:35:42.795Z,16.50
2019-01-29T03:37:44.377Z,14.45
2019-01-29T03:39:45.799Z,17.73
2019-01-29T03:41:47.267Z,15.05
2019-01-29T03:43:48.673Z,14.95
2019-01-29T03:45:50.038Z,16.12
2019-01-29T03:47:51.548Z,19.77
2019-01-29T03:49:52.920Z,14.43
2019-01-29T03:51:54.293Z,19.73
2019-01-29T03:53:55.712Z,16.82
2019-01-29T03:55:57.073Z,14.75
2019-01-29T03:57:58.456Z,21.48
2019-01-29T03:59:59.970Z,15.38
2019-01-29T04:02:01.397Z,15.48
2019-01-29T04:04:02.909Z,18.87
2019-01-29T04:06:04.272Z,15.30
2019-01-29T04:08:05.671Z,15.65
2019-01-29T04:10:11.338Z,16.35
2019-01-29T04:12:12.750Z,17.70
2019-01-29T04:14:14.400Z,16.62
2019-01-29T04:16:15.777Z,14.68
2019-01-29T04:18:17.344Z,17.48
2019-01-29T04:20:19.455Z,13.72
2019-01-29T04:22:20.838Z,13.98
2019-01-29T04:24:22.244Z,14.07
2019-01-29T04:26:23.664Z,14.00
2019-01-29T04:28:25.024Z,14.65
2019-01-29T04:30:26.457Z,13.20
2019-01-29T04:32:27.825Z,11.63
2019-01-29T04:34:29.201Z,11.48
2019-01-29T04:36:30.610Z,12.98
2019-01-29T04:38:32.008Z,13.83
2019-01-29T04:40:33.379Z,10.20
2019-01-29T04:42:34.747Z,11.83
2019-01-29T04:44:36.164Z,14.68
2019-01-29T04:46:37.535Z,14.93
2019-01-29T04:48:38.932Z,11.53
2019-01-29T04:50:40.343Z,15.93
2019-01-29T04:52:41.822Z,15.32
2019-01-29T04:54:43.247Z,13.10
2019-01-29T04:56:44.612Z,15.70
2019-01-29T04:58:46.035Z,12.25
2019-01-29T05:00:47.483Z,8.40
2019-01-29T05:02:49.097Z,10.90
2019-01-29T05:04:50.466Z,10.20
2019-01-29T05:06:51.839Z,9.33
2019-01-29T05:08:53.213Z,9.78
2019-01-29T05:10:54.609Z,12.93
2019-01-29T05:12:56.006Z,10.53
2019-01-29T05:14:57.375Z,14.73
2019-01-29T05:16:58.742Z,12.37
2019-01-29T05:19:00.124Z,8.33
2019-01-29T05:21:01.517Z,12.23
2019-01-29T05:23:03.189Z,11.05
2019-01-29T05:25:07.617Z,11.22
2019-01-29T05:27:08.999Z,11.25
2019-01-29T05:29:10.420Z,10.30
2019-01-29T05:31:11.759Z,9.45
2019-01-29T05:33:13.187Z,12.93
2019-01-29T05:35:14.760Z,14.73
2019-01-29T05:37:16.169Z,13.98
2019-01-29T05:39:17.535Z,16.82
2019-01-29T05:41:18.963Z,11.28
2019-01-29T05:43:20.365Z,11.20
2019-01-29T05:45:22.069Z,10.23
2019-01-29T05:47:23.649Z,12.82
2019-01-29T05:49:25.016Z,11.80
2019-01-29T05:51:26.405Z,9.15
2019-01-29T05:53:27.880Z,9.70
2019-01-29T05:55:29.277Z,12.30
2019-01-29T05:57:30.648Z,9.98
2019-01-29T05:59:32.049Z,10.43
2019-01-29T06:01:33.410Z,13.28
2019-01-29T06:03:36.711Z,13.15
2019-01-29T06:05:38.262Z,9.53
2019-01-29T06:07:39.900Z,10.58
2019-01-29T06:09:41.267Z,9.90
2019-01-29T06:11:42.704Z,17.45
2019-01-29T06:13:44.056Z,13.50
2019-01-29T06:15:45.450Z,12.63
2019-01-29T06:17:46.828Z,18.70
2019-01-29T06:19:48.199Z,12.68
2019-01-29T06:21:49.623Z,12.88
2019-01-29T06:23:50.971Z,13.38
2019-01-29T06:25:52.339Z,15.20
2019-01-29T06:27:53.830Z,17.75
2019-01-29T06:29:55.192Z,12.23
2019-01-29T06:31:56.550Z,14.98
2019-01-29T06:33:57.946Z,15.90
2019-01-29T06:35:59.311Z,23.87
2019-01-29T06:38:00.683Z,15.48
2019-01-29T06:40:05.715Z,14.15
2019-01-29T06:42:07.142Z,16.85
2019-01-29T06:44:08.513Z,15.50
2019-01-29T06:46:09.871Z,19.00
2019-01-29T06:48:11.274Z,18.62
2019-01-29T06:50:16.758Z,24.05
2019-01-29T06:52:18.166Z,17.60
2019-01-29T06:54:19.546Z,17.15
2019-01-29T06:56:21.181Z,16.35
2019-01-29T06:58:22.596Z,18.25
2019-01-29T07:00:28.064Z,17.02
2019-01-29T07:02:29.467Z,16.27
2019-01-29T07:04:30.839Z,18.60
2019-01-29T07:06:32.202Z,15.13
2019-01-29T07:08:33.614Z,16.60
2019-01-29T07:10:35.223Z,20.70
2019-01-29T07:12:36.593Z,19.07
2019-01-29T07:14:37.964Z,15.90
2019-01-29T07:16:41.307Z,14.95
2019-01-29T07:18:44.596Z,15.68
2019-01-29T07:20:46.137Z,20.27
2019-01-29T07:22:47.745Z,18.27
2019-01-29T07:24:49.112Z,17.00
2019-01-29T07:26:50.524Z,19.57
2019-01-29T07:28:51.936Z,22.10
2019-01-29T07:30:53.299Z,17.17
2019-01-29T07:32:54.710Z,18.17
2019-01-29T07:34:56.074Z,15.72
2019-01-29T07:36:57.471Z,17.37
2019-01-29T07:38:58.874Z,21.17
2019-01-29T07:41:00.248Z,20.12
2019-01-29T07:43:01.606Z,19.60
2019-01-29T07:45:08.509Z,16.65
2019-01-29T07:47:09.921Z,18.50
2019-01-29T07:49:11.318Z,19.87
2019-01-29T07:51:12.674Z,20.25
2019-01-29T07:53:14.098Z,16.67
2019-01-29T07:55:15.594Z,18.65
2019-01-29T07:57:16.956Z,16.48
2019-01-29T07:59:25.216Z,16.67
2019-01-29T08:01:21.665Z,17.87
2019-01-29T08:03:23.068Z,20.57
2019-01-29T08:05:24.464Z,20.25
2019-01-29T08:07:25.909Z,22.55
2019-01-29T08:09:27.281Z,20.50
2019-01-29T08:11:28.650Z,17.67
2019-01-29T08:13:30.044Z,18.52
2019-01-29T08:15:31.462Z,23.07
2019-01-29T08:17:32.922Z,20.32
2019-01-29T08:19:34.327Z,21.77
2019-01-29T08:21:35.697Z,17.92
2019-01-29T08:23:37.062Z,15.80
2019-01-29T08:25:38.462Z,16.50
2019-01-29T08:27:39.862Z,16.10
2019-01-29T08:29:41.234Z,25.57
2019-01-29T08:31:42.651Z,18.73
2019-01-29T08:33:44.009Z,24.27
2019-01-29T08:35:45.390Z,20.82
2019-01-29T08:37:46.802Z,18.23
2019-01-29T08:39:48.170Z,18.65
2019-01-29T08:41:49.583Z,16.23
2019-01-29T08:43:50.955Z,12.00
2019-01-29T08:45:54.168Z,17.70
2019-01-29T08:47:55.628Z,23.65
2019-01-29T08:49:57.011Z,16.25
2019-01-29T08:51:58.426Z,15.25
2019-01-29T08:53:59.797Z,19.60
2019-01-29T08:56:01.266Z,15.70
2019-01-29T08:58:02.869Z,15.70
2019-01-29T09:00:12.748Z,11.10
2019-01-29T09:02:14.142Z,11.75
2019-01-29T09:04:15.510Z,14.00
2019-01-29T09:06:17.121Z,14.38
2019-01-29T09:08:18.631Z,16.75
2019-01-29T09:10:21.411Z,13.38
2019-01-29T09:12:23.009Z,18.27
2019-01-29T09:14:24.493Z,15.98
2019-01-29T09:16:25.874Z,19.73
2019-01-29T09:18:27.286Z,19.27
2019-01-29T09:20:28.650Z,19.02
2019-01-29T09:22:30.022Z,18.73
2019-01-29T09:24:31.428Z,19.25
2019-01-29T09:26:32.803Z,18.90
2019-01-29T09:28:34.208Z,31.42
2019-01-29T09:30:35.584Z,17.45
2019-01-29T09:32:37.078Z,20.70
2019-01-29T09:34:38.496Z,16.77
2019-01-29T09:36:40.064Z,20.12
2019-01-29T09:38:41.463Z,23.07
2019-01-29T09:40:42.836Z,22.50
2019-01-29T09:42:44.305Z,16.27
2019-01-29T09:44:45.720Z,18.45
2019-01-29T09:46:47.087Z,21.07
2019-01-29T09:48:48.455Z,18.27
2019-01-29T09:50:49.975Z,21.77
2019-01-29T09:52:52.544Z,24.15
2019-01-29T09:54:53.912Z,20.30
2019-01-29T09:56:55.317Z,25.30
2019-01-29T09:58:56.696Z,22.20
2019-01-29T10:00:58.058Z,25.20
2019-01-29T10:02:59.572Z,19.48
2019-01-29T10:05:00.977Z,20.57
2019-01-29T10:07:02.696Z,17.45
2019-01-29T10:09:05.903Z,20.12
2019-01-29T10:11:07.275Z,22.15
2019-01-29T10:13:08.798Z,19.30
2019-01-29T10:15:18.385Z,20.92
2019-01-29T10:17:20.385Z,29.77
2019-01-29T10:19:21.823Z,18.70
2019-01-29T10:21:23.293Z,21.20
2019-01-29T10:23:24.674Z,20.48
2019-01-29T10:25:26.078Z,23.87
2019-01-29T10:27:27.476Z,18.20
2019-01-29T10:29:28.848Z,22.90
2019-01-29T10:31:30.229Z,20.70
2019-01-29T10:33:31.636Z,19.60
2019-01-29T10:35:33.038Z,19.42
2019-01-29T10:37:34.426Z,22.02
2019-01-29T10:39:35.832Z,21.52
2019-01-29T10:41:37.311Z,25.92
2019-01-29T10:43:38.717Z,21.20
2019-01-29T10:45:40.313Z,22.80
2019-01-29T10:47:41.697Z,17.45
2019-01-29T10:49:43.057Z,19.57
2019-01-29T10:51:44.462Z,21.82
2019-01-29T10:53:45.841Z,18.95
2019-01-29T10:55:47.760Z,27.65
2019-01-29T10:57:49.339Z,19.02
2019-01-29T10:59:50.714Z,24.02
2019-01-29T11:01:52.129Z,19.95
2019-01-29T11:03:53.976Z,25.12
2019-01-29T11:05:55.443Z,19.07
2019-01-29T11:07:56.816Z,17.50
2019-01-29T11:09:58.225Z,21.52
2019-01-29T11:11:59.649Z,21.73
2019-01-29T11:14:01.030Z,26.27
2019-01-29T11:16:03.200Z,21.82
2019-01-29T11:18:08.921Z,19.67
2019-01-29T11:20:14.704Z,20.50
2019-01-29T11:22:16.083Z,19.60
2019-01-29T11:24:17.502Z,20.85
2019-01-29T11:26:18.876Z,24.77
2019-01-29T11:28:20.364Z,16.32
2019-01-29T11:30:31.777Z,15.25
2019-01-29T11:32:33.170Z,17.35
2019-01-29T11:34:34.531Z,26.85
2019-01-29T11:36:36.143Z,16.97
2019-01-29T11:38:37.509Z,18.02
2019-01-29T11:40:38.993Z,17.85
2019-01-29T11:42:40.433Z,21.77
2019-01-29T11:44:41.814Z,18.75
2019-01-29T11:46:43.183Z,16.70
2019-01-29T11:48:44.578Z,20.72
2019-01-29T11:50:45.943Z,22.48
2019-01-29T11:52:47.418Z,16.02
2019-01-29T11:54:50.353Z,16.80
2019-01-29T11:56:51.943Z,17.70
2019-01-29T11:58:53.413Z,19.55
2019-01-29T12:00:59.605Z,17.40
2019-01-29T12:03:00.974Z,18.42
2019-01-29T12:05:04.495Z,17.98
2019-01-29T12:07:05.871Z,20.23
2019-01-29T12:09:07.354Z,18.57
2019-01-29T12:11:08.773Z,15.00
2019-01-29T12:13:10.181Z,18.10
2019-01-29T12:15:18.182Z,17.87
2019-01-29T12:17:19.560Z,13.80
2019-01-29T12:19:20.976Z,13.03
2019-01-29T12:21:22.352Z,12.90
2019-01-29T12:23:24.081Z,14.15
2019-01-29T12:25:25.453Z,12.25
2019-01-29T12:27:26.904Z,13.10
2019-01-29T12:29:28.331Z,15.88
2019-01-29T12:31:29.766Z,14.13
2019-01-29T12:33:31.551Z,14.87
2019-01-29T12:35:33.026Z,14.23
2019-01-29T12:37:34.519Z,12.18
2019-01-29T12:39:35.984Z,10.68
2019-01-29T12:41:37.355Z,15.10
2019-01-29T12:43:38.746Z,9.65
2019-01-29T12:45:40.133Z,8.65
2019-01-29T12:47:41.642Z,11.75
2019-01-29T12:49:43.067Z,10.03
2019-01-29T12:51:46.519Z,9.50
2019-01-29T12:53:48.040Z,6.90
2019-01-29T12:55:49.457Z,11.33
2019-01-29T12:57:50.820Z,11.35
2019-01-29T12:59:52.437Z,17.73
2019-01-29T13:01:53.775Z,9.55
2019-01-29T13:03:55.160Z,9.95
2019-01-29T13:05:56.605Z,7.62
2019-01-29T13:07:58.173Z,9.43
2019-01-29T13:09:59.570Z,11.60
2019-01-29T13:12:01.160Z,9.13
2019-01-29T13:14:03.839Z,10.90
2019-01-29T13:16:05.239Z,11.20
2019-01-29T13:18:06.838Z,10.50
2019-01-29T13:20:10.314Z,13.15
2019-01-29T13:22:12.054Z,13.78
2019-01-29T13:24:13.514Z,14.60
2019-01-29T13:26:14.851Z,9.07
2019-01-29T13:28:16.407Z,10.15
2019-01-29T13:30:26.178Z,19.50
2019-01-29T13:32:27.559Z,12.15
2019-01-29T13:34:29.087Z,10.32
2019-01-29T13:36:30.572Z,6.90
2019-01-29T13:38:32.086Z,8.63
2019-01-29T13:40:33.753Z,13.78
2019-01-29T13:42:35.255Z,9.53
2019-01-29T13:44:36.637Z,8.28
2019-01-29T13:46:38.116Z,8.15
2019-01-29T13:48:39.571Z,11.53
2019-01-29T13:50:45.982Z,9.43
2019-01-29T13:52:47.482Z,13.80
2019-01-29T13:54:48.901Z,9.35
2019-01-29T13:56:50.319Z,11.30
2019-01-29T13:58:51.751Z,7.05
2019-01-29T14:00:53.188Z,7.97
2019-01-29T14:02:54.608Z,8.23
2019-01-29T14:04:55.983Z,7.92
2019-01-29T14:06:57.456Z,13.00
2019-01-29T14:08:58.834Z,12.03
2019-01-29T14:11:00.305Z,12.23
2019-01-29T14:13:01.814Z,8.20
2019-01-29T14:15:08.505Z,8.43
2019-01-29T14:17:09.963Z,7.92
2019-01-29T14:19:11.344Z,7.00
2019-01-29T14:21:12.734Z,6.03
2019-01-29T14:23:15.241Z,12.05
2019-01-29T14:25:16.660Z,12.15
2019-01-29T14:27:18.033Z,9.35
2019-01-29T14:29:19.679Z,12.80
2019-01-29T14:31:21.011Z,6.80
2019-01-29T14:33:22.423Z,11.55
2019-01-29T14:35:23.838Z,7.60
2019-01-29T14:37:25.209Z,8.23
2019-01-29T14:39:26.971Z,14.40
2019-01-29T14:41:28.504Z,16.70
2019-01-29T14:43:37.956Z,10.30
2019-01-29T14:45:39.448Z,14.47
2019-01-29T14:47:41.120Z,15.17
2019-01-29T14:49:42.468Z,7.33
2019-01-29T14:51:43.870Z,11.68
2019-01-29T14:53:45.309Z,17.05
2019-01-29T14:55:46.714Z,6.65
2019-01-29T14:57:48.176Z,8.70
2019-01-29T14:59:49.556Z,6.50
2019-01-29T15:01:50.954Z,10.00
2019-01-29T15:03:52.358Z,9.48
2019-01-29T15:05:53.826Z,8.75
2019-01-29T15:07:55.200Z,8.83
2019-01-29T15:09:56.582Z,9.15
2019-01-29T15:11:58.052Z,7.08
2019-01-29T15:13:59.446Z,10.82
2019-01-29T15:16:11.586Z,13.22
2019-01-29T15:18:17.925Z,12.45
2019-01-29T15:20:19.276Z,8.90
2019-01-29T15:22:20.780Z,11.33
2019-01-29T15:24:22.186Z,9.08
2019-01-29T15:26:23.595Z,25.20
2019-01-29T15:28:24.966Z,19.45
2019-01-29T15:30:29.205Z,15.43
2019-01-29T15:32:30.574Z,17.07
2019-01-29T15:34:31.922Z,8.90
2019-01-29T15:36:33.420Z,13.15
2019-01-29T15:38:34.802Z,11.73
2019-01-29T15:40:36.174Z,10.45
2019-01-29T15:42:37.623Z,11.33
2019-01-29T15:44:39.022Z,8.47
2019-01-29T15:46:40.434Z,8.53
2019-01-29T15:48:41.804Z,9.50
2019-01-29T15:50:43.260Z,13.20
2019-01-29T15:52:48.630Z,8.87
2019-01-29T15:54:48.068Z,12.07
2019-01-29T15:56:49.418Z,9.37
2019-01-29T15:58:50.884Z,10.50
2019-01-29T16:00:52.234Z,8.60
2019-01-29T16:02:53.622Z,16.23
2019-01-29T16:04:55.033Z,6.05
2019-01-29T16:06:56.398Z,8.80
2019-01-29T16:08:58.067Z,11.07
2019-01-29T16:10:59.416Z,8.28
2019-01-29T16:13:00.895Z,9.23
2019-01-29T16:15:07.347Z,6.53
2019-01-29T16:17:08.734Z,7.00
2019-01-29T16:19:10.216Z,8.93
2019-01-29T16:21:11.692Z,10.50
2019-01-29T16:23:13.167Z,22.03
2019-01-29T16:25:26.336Z,11.87
2019-01-29T16:27:27.746Z,8.18
2019-01-29T16:29:29.224Z,12.10
2019-01-29T16:31:30.781Z,6.95
2019-01-29T16:33:32.260Z,5.20
2019-01-29T16:35:39.889Z,5.85
2019-01-29T16:37:43.048Z,4.10
2019-01-29T16:39:44.453Z,6.90
2019-01-29T16:41:45.879Z,6.85
2019-01-29T16:43:47.353Z,8.55
2019-01-29T16:45:48.816Z,11.20
2019-01-29T16:47:50.454Z,6.92
2019-01-29T16:49:51.860Z,11.65
2019-01-29T16:51:53.280Z,6.33
2019-01-29T16:53:54.647Z,7.03
2019-01-29T16:55:56.051Z,6.95
2019-01-29T16:57:57.506Z,5.90
2019-01-29T16:59:58.895Z,4.50
2019-01-29T17:02:00.274Z,5.28
2019-01-29T17:04:01.711Z,9.38
2019-01-29T17:06:03.688Z,8.98
2019-01-29T17:08:05.264Z,8.20
2019-01-29T17:10:11.892Z,5.95
2019-01-29T17:12:13.343Z,6.15
2019-01-29T17:14:14.722Z,9.00
2019-01-29T17:16:16.101Z,7.85
2019-01-29T17:18:17.531Z,7.60
2019-01-29T17:20:25.670Z,6.55
2019-01-29T17:22:27.045Z,5.87
2019-01-29T17:24:28.475Z,5.30
2019-01-29T17:26:31.112Z,9.08
2019-01-29T17:28:32.585Z,6.75
2019-01-29T17:30:40.732Z,4.95
2019-01-29T17:32:42.099Z,7.00
2019-01-29T17:34:43.592Z,7.33
2019-01-29T17:36:44.967Z,4.80
2019-01-29T17:38:46.424Z,6.75
2019-01-29T17:40:47.819Z,9.95
2019-01-29T17:42:49.302Z,6.30
2019-01-29T17:44:50.737Z,8.23
2019-01-29T17:46:52.341Z,10.15
2019-01-29T17:48:53.685Z,7.85
2019-01-29T17:50:55.217Z,7.28
2019-01-29T17:52:56.598Z,7.35
2019-01-29T17:54:57.968Z,8.65
2019-01-29T17:56:59.405Z,7.45
2019-01-29T17:59:00.795Z,6.20
2019-01-29T18:01:03.652Z,7.45
2019-01-29T18:03:05.897Z,7.87
2019-01-29T18:05:07.510Z,15.53
2019-01-29T18:07:08.881Z,12.05
2019-01-29T18:09:10.283Z,7.78
2019-01-29T18:11:11.792Z,10.85
2019-01-29T18:13:13.169Z,11.85
2019-01-29T18:15:18.167Z,9.48
2019-01-29T18:17:19.611Z,9.78
2019-01-29T18:19:20.989Z,9.38
2019-01-29T18:21:22.404Z,7.87
2019-01-29T18:23:23.835Z,6.90
2019-01-29T18:25:25.507Z,9.88
2019-01-29T18:27:26.902Z,12.53
2019-01-29T18:29:28.284Z,24.15
2019-01-29T18:31:29.744Z,24.75
2019-01-29T18:33:31.129Z,19.30
2019-01-29T18:35:32.904Z,18.77
2019-01-29T18:37:34.334Z,17.82
2019-01-29T18:39:35.718Z,11.73
2019-01-29T18:41:37.262Z,14.43
2019-01-29T18:43:38.639Z,12.18
2019-01-29T18:45:40.122Z,16.27
2019-01-29T18:47:41.553Z,12.95
2019-01-29T18:49:42.916Z,18.95
2019-01-29T18:51:44.266Z,7.78
2019-01-29T18:53:45.700Z,9.95
2019-01-29T18:55:47.103Z,14.13
2019-01-29T18:57:48.476Z,10.00
2019-01-29T18:59:49.928Z,8.53
2019-01-29T19:01:51.294Z,9.98
2019-01-29T19:03:52.697Z,12.63
2019-01-29T19:05:54.162Z,15.25
2019-01-29T19:07:55.502Z,9.78
2019-01-29T19:09:56.919Z,12.85
2019-01-29T19:11:58.362Z,13.10
2019-01-29T19:13:59.932Z,12.55
2019-01-29T19:16:01.306Z,14.40
2019-01-29T19:18:03.156Z,24.65
2019-01-29T19:20:09.863Z,20.17
2019-01-29T19:22:11.223Z,14.95
2019-01-29T19:24:12.636Z,14.87
2019-01-29T19:26:14.020Z,14.60
2019-01-29T19:28:21.803Z,14.00
2019-01-29T19:30:26.586Z,15.53
2019-01-29T19:32:27.961Z,12.90
2019-01-29T19:34:29.328Z,10.60
2019-01-29T19:36:30.925Z,10.95
2019-01-29T19:38:32.302Z,14.47
2019-01-29T19:40:33.677Z,14.30
2019-01-29T19:42:35.115Z,31.30
2019-01-29T19:44:36.483Z,33.35
2019-01-29T19:46:37.857Z,32.08
2019-01-29T19:48:39.280Z,33.60
2019-01-29T19:50:40.761Z,20.50
2019-01-29T19:52:42.338Z,14.18
2019-01-29T19:54:43.786Z,13.03
2019-01-29T19:56:45.168Z,14.83
2019-01-29T19:58:46.551Z,11.75
2019-01-29T20:00:48.023Z,13.25
2019-01-29T20:02:49.363Z,8.55
2019-01-29T20:04:50.811Z,7.58
2019-01-29T20:06:52.264Z,9.93
2019-01-29T20:08:53.671Z,11.15
2019-01-29T20:10:55.196Z,8.83
2019-01-29T20:12:57.727Z,12.20
2019-01-29T20:14:59.090Z,9.50
2019-01-29T20:17:00.545Z,10.00
2019-01-29T20:19:01.921Z,11.22
2019-01-29T20:21:03.262Z,9.68
2019-01-29T20:23:08.045Z,9.28
2019-01-29T20:25:08.689Z,12.15
2019-01-29T20:27:10.071Z,10.60
2019-01-29T20:29:11.645Z,7.17
2019-01-29T20:31:14.931Z,11.15
2019-01-29T20:33:16.493Z,6.62
2019-01-29T20:35:17.938Z,8.70
2019-01-29T20:37:19.335Z,13.95
2019-01-29T20:39:20.744Z,10.13
2019-01-29T20:41:22.180Z,11.80
2019-01-29T20:43:25.412Z,14.87
2019-01-29T20:45:26.837Z,8.00
2019-01-29T20:47:28.277Z,6.60
2019-01-29T20:49:29.659Z,7.17
2019-01-29T20:51:31.035Z,8.40
2019-01-29T20:53:32.486Z,11.25
2019-01-29T20:55:33.970Z,9.73
2019-01-29T20:57:35.349Z,9.78
2019-01-29T20:59:36.782Z,11.00
2019-01-29T21:01:38.142Z,8.63
2019-01-29T21:03:39.527Z,8.90
2019-01-29T21:05:40.990Z,9.08
2019-01-29T21:07:42.422Z,13.75
2019-01-29T21:09:43.797Z,9.90
2019-01-29T21:11:45.376Z,10.53
2019-01-29T21:13:46.803Z,8.20
2019-01-29T21:15:48.159Z,12.90
2019-01-29T21:17:49.984Z,9.43
2019-01-29T21:19:51.457Z,7.25
2019-01-29T21:21:52.827Z,7.85
2019-01-29T21:23:54.269Z,11.22
2019-01-29T21:25:55.626Z,7.80
2019-01-29T21:27:56.996Z,9.08
2019-01-29T21:29:58.455Z,9.18
2019-01-29T21:31:59.812Z,10.78
2019-01-29T21:34:01.186Z,8.75
2019-01-29T21:36:02.823Z,9.43
2019-01-29T21:38:04.286Z,9.45
2019-01-29T21:40:09.760Z,9.25
2019-01-29T21:42:11.215Z,11.55
2019-01-29T21:44:12.592Z,9.58
2019-01-29T21:46:13.964Z,11.90
2019-01-29T21:48:15.382Z,11.30
2019-01-29T21:50:21.671Z,13.65
2019-01-29T21:52:23.038Z,14.53
2019-01-29T21:54:24.647Z,11.70
2019-01-29T21:56:26.010Z,9.78
2019-01-29T21:58:27.381Z,10.85
2019-01-29T22:00:35.858Z,12.15
2019-01-29T22:02:37.232Z,10.95
2019-01-29T22:04:38.649Z,14.00
2019-01-29T22:06:40.037Z,10.53
2019-01-29T22:08:41.579Z,13.03
2019-01-29T22:10:43.214Z,9.75
2019-01-29T22:12:44.689Z,12.45
2019-01-29T22:14:46.048Z,11.38
2019-01-29T22:16:47.473Z,20.97
2019-01-29T22:18:48.844Z,16.10
2019-01-29T22:20:50.202Z,16.05
2019-01-29T22:22:51.713Z,11.63
2019-01-29T22:24:53.077Z,11.73
2019-01-29T22:26:54.484Z,13.15
2019-01-29T22:28:55.855Z,13.75
2019-01-29T22:30:57.231Z,11.97
2019-01-29T22:32:58.750Z,13.05
2019-01-29T22:35:00.317Z,15.18
2019-01-29T22:37:01.676Z,11.68
2019-01-29T22:39:06.606Z,13.93
2019-01-29T22:41:08.070Z,12.98
2019-01-29T22:43:09.442Z,11.53
2019-01-29T22:45:14.751Z,17.55
2019-01-29T22:47:16.336Z,15.38
2019-01-29T22:49:17.707Z,16.90
2019-01-29T22:51:19.078Z,11.45
2019-01-29T22:53:20.501Z,15.98
2019-01-29T22:55:21.866Z,21.60
2019-01-29T22:57:23.242Z,14.53
2019-01-29T22:59:33.134Z,17.85
2019-01-29T23:01:30.950Z,12.37
2019-01-29T23:03:37.713Z,18.45
2019-01-29T23:05:39.342Z,13.48
2019-01-29T23:07:41.193Z,14.55
2019-01-29T23:09:42.568Z,17.65
2019-01-29T23:11:44.087Z,14.45
2019-01-29T23:13:45.448Z,12.68
2019-01-29T23:15:46.973Z,19.92
2019-01-29T23:17:48.558Z,14.98
2019-01-29T23:19:49.937Z,14.10
2019-01-29T23:21:51.370Z,13.48
2019-01-29T23:23:52.742Z,14.40
2019-01-29T23:25:54.105Z,19.12
2019-01-29T23:27:55.552Z,14.35
2019-01-29T23:29:56.913Z,15.43
2019-01-29T23:31:58.281Z,13.10
2019-01-29T23:33:59.855Z,17.48
2019-01-29T23:36:01.225Z,17.05
2019-01-29T23:38:03.482Z,15.78
2019-01-29T23:40:13.213Z,13.78
2019-01-29T23:42:14.678Z,14.03
2019-01-29T23:44:16.053Z,14.47
2019-01-29T23:46:17.493Z,14.35
2019-01-29T23:48:18.864Z,9.40
2019-01-29T23:50:20.293Z,17.60
2019-01-29T23:52:21.726Z,14.68
2019-01-29T23:54:23.096Z,12.70
2019-01-29T23:56:24.463Z,12.58
2019-01-29T23:58:26.202Z,10.40
